Latest Weather Observations for Williamtown

IDN60801

Issued at 3:03 pm EST Sunday 28 August 2016 (issued every 30 minutes, with the page automatically refreshed every 10 minutes)

About weather observations | Map of weather stations | Latest weather observations for NSW | Other Formats
Station Details ID: 061078 Name: WILLIAMTOWN RAAF Lat: -32.79 Lon: 151.84 Height: 9.0 m
Data from the previous 72 hours. | See also: Recent months at Williamtown
Date/Time
EST
Temp
°C
App
Temp
°C
Dew
Point
°C
Rel
Hum
%
Delta-T
°C
Wind Press
QNH
hPa
Press
MSL
hPa
Rain since
9am
mm
Dir  Spd
km/h
Gust
km/h
Spd
kts
Gust
kts
28/03:00pm 20.2 14.8 -1.6 23 9.3 WNW 17 28 9 15 1020.5 1020.5 0.0
28/02:30pm 19.8 14.1 -3.8 20 9.6 WNW 17 28 9 15 1020.9 1020.9 0.0
28/02:00pm 19.3 13.0 -4.0 20 9.4 WNW 20 30 11 16 1021.0 1021.0 0.0
28/01:30pm 19.2 12.8 -2.0 23 8.9 NW 22 32 12 17 1021.3 1021.3 0.0
28/01:00pm 18.9 13.0 -1.0 26 8.5 WNW 20 28 11 15 1021.4 1021.4 0.0
28/12:30pm 18.2 11.9 -1.2 27 8.2 W 22 33 12 18 1021.8 1021.8 0.0
28/12:00pm 18.0 10.9 -1.2 27 8.1 NW 26 37 14 20 1022.2 1022.2 0.0
28/11:30am 17.9 11.0 0.1 30 7.7 WNW 26 35 14 19 1022.8 1022.8 0.0
28/11:00am 16.8 9.3 1.0 34 6.9 WNW 30 37 16 20 1023.1 1023.1 0.0
28/10:30am 15.5 7.6 1.2 38 6.2 WNW 32 41 17 22 1023.4 1023.4 0.0
28/10:00am 14.6 6.3 2.0 42 5.5 WNW 35 41 19 22 1023.7 1023.7 0.0
28/09:30am 13.6 6.7 2.7 47 4.8 WNW 28 39 15 21 1023.8 1023.8 0.0
28/09:00am 12.2 4.6 3.1 53 4.0 WNW 32 46 17 25 1024.1 1024.1 0.0
28/08:30am 11.3 5.4 4.1 61 3.2 WNW 24 32 13 17 1023.9 1023.9 0.0
28/08:00am 10.0 4.5 4.1 67 2.6 WNW 22 32 12 17 1024.0 1024.0 0.0
28/07:30am 8.6 4.7 3.5 70 2.2 W 13 17 7 9 1023.9 1023.9 0.0
28/07:00am 7.3 3.3 3.0 74 1.8 NW 13 15 7 8 1023.4 1023.4 0.0
28/06:30am 5.8 1.4 2.6 80 1.3 NW 15 19 8 10 1023.3 1023.3 0.0
28/06:00am 6.4 1.2 2.5 76 1.6 NW 19 24 10 13 1022.8 1022.8 0.0
28/05:30am 7.1 1.7 2.5 72 1.9 NW 20 30 11 16 1022.3 1022.3 0.0
28/05:00am 6.7 1.0 2.8 76 1.6 NW 22 28 12 15 1022.1 1022.1 0.0
28/04:30am 5.8 1.9 3.4 84 1.0 NW 13 17 7 9 1022.1 1022.1 0.0
28/04:00am 5.2 1.4 4.0 92 0.5 WNW 13 15 7 8 1022.3 1022.3 0.0
28/03:30am 5.8 2.6 4.9 94 0.4 NW 11 13 6 7 1022.0 1022.0 0.0
28/03:00am 5.6 2.7 4.9 95 0.3 WNW 9 11 5 6 1021.9 1021.9 0.0
28/02:30am 6.2 4.1 5.7 97 0.2 WNW 6 7 3 4 1021.9 1021.9 0.0
28/02:00am 6.8 3.4 5.9 94 0.4 NW 13 13 7 7 1022.2 1022.2 0.0
28/01:30am 7.3 4.3 6.0 91 0.6 NNW 11 15 6 8 1022.4 1022.4 0.0
28/01:00am 7.4 4.5 6.3 93 0.5 NW 11 13 6 7 1022.5 1022.5 0.0
28/12:30am 7.5 5.0 6.4 93 0.5 NW 9 9 5 5 1022.6 1022.6 0.0
28/12:00am 8.1 5.3 7.0 93 0.5 NW 11 13 6 7 1022.4 1022.4 0.0
 
Date/Time
EST
Temp
°C
App
Temp
°C
Dew
Point
°C
Rel
Hum
%
Delta-T
°C
Wind Press
QNH
hPa
Press
MSL
hPa
Rain since
9am
mm
Dir  Spd
km/h
Gust
km/h
Spd
kts
Gust
kts
27/11:30pm 7.8 5.4 6.9 94 0.4 WNW 9 11 5 6 1022.0 1022.0 0.0
27/11:00pm 9.1 6.7 7.2 88 0.9 NNW 9 11 5 6 1022.0 1022.0 0.0
27/10:30pm 9.4 7.7 7.5 88 0.9 N 6 7 3 4 1022.1 1022.1 0.0
27/10:00pm 10.2 8.1 8.3 88 0.9 N 9 13 5 7 1022.0 1022.0 0.0
27/09:30pm 9.2 7.4 7.9 92 0.6 NNW 7 9 4 5 1022.3 1022.3 0.0
27/09:00pm 10.8 8.4 8.6 86 1.1 NNE 11 15 6 8 1022.1 1022.1 0.0
27/08:30pm 10.4 8.9 8.3 87 1.0 NNE 6 9 3 5 1022.0 1022.0 0.0
27/08:00pm 9.7 8.0 8.2 90 0.7 NNE 7 7 4 4 1022.0 1022.0 0.0
27/07:30pm 11.1 9.5 8.7 85 1.2 NNE 7 9 4 5 1022.0 1022.0 0.0
27/07:00pm 11.6 9.3 9.0 84 1.3 NE 11 11 6 6 1022.0 1022.0 0.0
27/06:30pm 12.3 10.5 9.3 82 1.5 NE 9 9 5 5 1021.6 1021.6 0.0
27/06:00pm 13.2 11.3 9.2 77 2.0 ENE 9 9 5 5 1021.4 1021.4 0.0
27/05:30pm 14.8 12.3 8.0 64 3.4 E 11 11 6 6 1021.1 1021.1 0.0
27/05:00pm 15.3 12.4 8.1 62 3.6 SE 13 17 7 9 1021.1 1021.1 0.0
27/04:30pm 16.1 13.1 7.7 57 4.2 SE 13 17 7 9 1020.9 1020.9 0.0
27/04:00pm 16.7 14.0 7.2 53 4.7 ESE 11 13 6 7 1020.8 1020.8 0.0
27/03:30pm 17.3 14.7 7.8 53 4.8 ESE 11 17 6 9 1020.7 1020.7 0.0
27/03:00pm 17.0 14.4 7.9 55 4.6 ESE 11 15 6 8 1020.9 1020.9 0.0
27/02:30pm 16.3 14.4 7.5 56 4.4 SSW 7 13 4 7 1021.1 1021.1 0.0
27/02:00pm 16.6 13.9 7.3 54 4.6 S 11 19 6 10 1021.3 1021.3 0.0
27/01:30pm 16.0 13.2 7.1 55 4.4 SSE 11 15 6 8 1021.6 1021.6 0.0
27/01:00pm 16.5 13.9 5.9 49 5.1 SSW 9 17 5 9 1022.0 1022.0 0.0
27/12:30pm 17.2 14.8 7.1 51 5.0 W 9 13 5 7 1022.4 1022.4 0.0
27/12:00pm 17.0 13.9 7.1 52 4.9 W 13 19 7 10 1022.7 1022.7 0.0
27/11:30am 15.5 13.5 6.4 54 4.4 W 6 11 3 6 1023.0 1023.0 0.0
27/11:00am 15.7 11.3 4.8 48 5.1 SW 17 26 9 14 1023.2 1023.2 0.0
27/10:30am 15.8 11.9 5.2 49 5.0 W 15 26 8 14 1023.3 1023.3 0.0
27/10:00am 14.6 10.9 4.7 51 4.6 WSW 13 24 7 13 1023.4 1023.4 0.0
27/09:30am 13.7 9.4 5.1 56 4.0 WSW 17 26 9 14 1023.4 1023.4 0.0
27/09:00am 12.0 8.1 7.2 72 2.3 WNW 17 20 9 11 1023.5 1023.5 3.0
27/08:30am 10.5 7.4 7.3 80 1.5 WNW 13 17 7 9 1023.4 1023.4 3.0
27/08:00am 8.8 4.5 6.9 88 0.9 WNW 19 22 10 12 1023.2 1023.2 3.0
27/07:30am 7.9 3.9 6.6 91 0.6 NW 17 20 9 11 1022.8 1022.8 3.0
27/07:00am 7.9 4.7 6.8 93 0.5 NW 13 17 7 9 1022.2 1022.2 3.0
27/06:30am 7.3 3.2 6.4 94 0.4 NW 17 19 9 10 1021.9 1021.9 3.0
27/06:00am 7.2 3.9 6.5 95 0.3 NW 13 15 7 8 1021.7 1021.7 3.0
27/05:30am 7.1 4.1 6.2 94 0.4 NW 11 15 6 8 1021.4 1021.4 3.0
27/05:00am 7.2 4.6 6.3 94 0.4 NW 9 11 5 6 1021.4 1021.4 3.0
27/04:30am 7.2 4.3 6.3 94 0.4 NW 11 13 6 7 1021.1 1021.1 3.0
27/04:00am 7.2 5.1 6.5 95 0.3 NW 7 9 4 5 1021.1 1021.1 3.0
27/03:30am 7.2 4.0 6.8 97 0.2 NW 13 15 7 8 1020.9 1020.9 3.0
27/03:00am 7.6 4.4 6.9 95 0.3 NW 13 15 7 8 1020.9 1020.9 3.0
27/02:30am 7.8 4.7 7.2 96 0.3 NW 13 15 7 8 1021.0 1021.0 2.8
27/02:00am 8.4 5.7 7.5 94 0.4 W 11 17 6 9 1020.9 1020.9 2.8
27/01:30am 8.4 4.5 7.3 93 0.5 WNW 17 19 9 10 1021.0 1021.0 2.6
27/01:00am 8.2 4.3 7.3 94 0.4 WNW 17 19 9 10 1021.3 1021.3 2.6
27/12:30am 8.0 4.5 7.4 96 0.3 WNW 15 19 8 10 1021.4 1021.4 2.6
27/12:00am 7.5 4.7 6.8 95 0.3 WNW 11 13 6 7 1021.3 1021.3 2.6
 
Date/Time
EST
Temp
°C
App
Temp
°C
Dew
Point
°C
Rel
Hum
%
Delta-T
°C
Wind Press
QNH
hPa
Press
MSL
hPa
Rain since
9am
mm
Dir  Spd
km/h
Gust
km/h
Spd
kts
Gust
kts
26/11:30pm 7.6 4.7 6.7 94 0.4 W 11 13 6 7 1021.0 1021.0 2.6
26/11:00pm 8.0 5.6 6.9 93 0.5 W 9 9 5 5 1021.0 1021.0 2.6
26/10:30pm 7.8 5.4 6.9 94 0.4 W 9 11 5 6 1020.9 1020.9 2.6
26/10:00pm 8.3 5.2 7.2 93 0.5 W 13 15 7 8 1020.7 1020.7 2.6
26/09:30pm 9.2 6.2 7.9 92 0.6 WSW 13 17 7 9 1020.8 1020.8 2.6
26/09:00pm 9.6 6.0 8.4 92 0.6 WSW 17 20 9 11 1020.6 1020.6 2.6
26/08:30pm 9.5 5.9 8.5 93 0.5 W 17 20 9 11 1020.3 1020.3 2.6
26/08:00pm 9.7 5.8 8.5 92 0.6 W 19 22 10 12 1020.2 1020.2 2.6
26/07:30pm 9.9 6.4 8.7 92 0.6 W 17 20 9 11 1020.4 1020.4 2.4
26/07:00pm 9.9 6.6 8.2 89 0.8 W 15 19 8 10 1020.2 1020.2 2.4
26/06:30pm 10.0 8.4 8.6 91 0.7 WSW 7 11 4 6 1020.2 1020.2 1.6
26/06:00pm 10.4 7.8 7.9 84 1.2 WSW 11 13 6 7 1019.8 1019.8 0.2
26/05:30pm 10.7 7.7 7.6 81 1.5 WSW 13 19 7 10 1019.1 1019.1 0.2
26/05:00pm 11.3 7.2 8.0 80 1.6 WSW 19 28 10 15 1019.0 1019.0 0.2
26/04:30pm 11.8 6.6 7.2 73 2.2 SSW 24 32 13 17 1018.6 1018.6 0.0
26/04:00pm 12.6 8.0 6.5 66 2.9 SSW 20 30 11 16 1018.3 1018.3 0.0
26/03:30pm 14.7 8.4 4.0 48 4.9 SSW 26 35 14 19 1017.8 1017.8 0.0
26/03:00pm 14.3 9.5 4.8 53 4.4 SSW 19 32 10 17 1017.4 1017.4 0.0
26/02:30pm 15.9 11.4 4.3 46 5.4 SW 17 28 9 15 1017.3 1017.3 0.0
26/02:00pm 15.9 11.4 4.0 45 5.5 SSW 17 24 9 13 1017.4 1017.4 0.0
26/01:30pm 16.3 10.4 4.0 44 5.7 SW 24 33 13 18 1017.5 1017.5 0.0
26/01:00pm 15.2 9.3 3.9 47 5.2 SW 24 32 13 17 1017.6 1017.6 0.0
26/12:30pm 15.8 10.6 3.6 44 5.6 SW 20 33 11 18 1018.0 1018.0 0.0
26/12:00pm 15.8 10.3 4.1 45 5.4 SW 22 30 12 16 1018.3 1018.3 0.0
26/11:30am 15.0 11.2 4.1 48 5.0 WSW 13 24 7 13 1018.5 1018.5 0.0
26/11:00am 13.8 9.6 3.9 51 4.5 WSW 15 24 8 13 1018.7 1018.7 0.0
26/10:30am 13.3 8.7 3.7 52 4.3 WSW 17 22 9 12 1018.9 1018.9 0.0
26/10:00am 13.1 8.2 4.0 54 4.1 W 19 26 10 14 1018.8 1018.8 0.0
26/09:30am 11.8 6.6 3.7 57 3.6 WNW 20 28 11 15 1018.8 1018.8 0.0
26/09:00am 10.7 5.1 3.6 61 3.1 WNW 22 30 12 16 1019.0 1019.0 -
26/08:30am 9.2 3.3 3.7 68 2.4 WNW 24 28 13 15 1018.9 1018.9 -
26/08:00am 8.6 3.7 4.0 73 2.0 WNW 19 26 10 14 1018.9 1018.9 -
26/07:30am 7.7 2.1 3.7 76 1.7 WNW 22 30 12 16 1018.4 1018.4 -
26/07:00am 6.7 1.5 3.6 80 1.3 WNW 20 26 11 14 1018.2 1018.2 -
26/06:30am 5.8 1.1 3.4 84 1.0 WNW 17 19 9 10 1017.8 1017.8 -
26/06:00am 5.9 0.7 3.3 83 1.1 WNW 20 26 11 14 1017.3 1017.3 -
26/05:30am 5.8 0.8 3.4 84 1.0 WNW 19 26 10 14 1017.0 1017.0 -
26/05:29am 5.9 0.9 3.5 84 1.0 WNW 19 26 10 14 1016.9 1016.9 -
26/05:28am 8.4 4.6 7.5 94 0.4 WNW 17 24 9 13 1025.8 1025.8 -
26/05:00am 5.8 1.5 3.4 84 1.0 WNW 15 19 8 10 1016.8 1016.8 2.6
26/04:30am 6.4 1.9 4.1 85 1.0 WNW 17 24 9 13 1016.4 1016.4 2.6
26/04:00am 6.7 1.6 4.1 83 1.1 WNW 20 26 11 14 1016.2 1016.2 2.6
26/03:30am 6.5 2.0 4.4 86 0.9 WNW 17 22 9 12 1016.0 1016.0 2.6
26/03:00am 6.8 2.4 4.5 85 1.0 WNW 17 19 9 10 1016.1 1016.1 2.6
26/02:30am 7.1 2.1 4.8 85 1.0 WNW 20 24 11 13 1015.9 1015.9 2.6
26/02:00am 7.0 3.1 5.4 89 0.7 WNW 15 17 8 9 1016.1 1016.1 2.6
26/01:30am 7.4 4.0 5.8 90 0.7 WNW 13 15 7 8 1016.1 1016.1 2.6
26/01:00am 6.9 3.0 5.5 91 0.6 WNW 15 19 8 10 1015.9 1015.9 2.6
26/12:30am 7.3 2.8 6.0 91 0.6 WNW 19 19 10 10 1015.7 1015.7 2.6
26/12:00am 7.0 3.7 6.3 95 0.3 WNW 13 15 7 8 1015.4 1015.4 2.6
 
Date/Time
EST
Temp
°C
App
Temp
°C
Dew
Point
°C
Rel
Hum
%
Delta-T
°C
Wind Press
QNH
hPa
Press
MSL
hPa
Rain since
9am
mm
Dir  Spd
km/h
Gust
km/h
Spd
kts
Gust
kts
25/11:30pm 7.1 4.7 6.9 99 0.1 WNW 9 9 5 5 1015.4 1015.4 2.6
25/11:00pm 7.8 5.5 7.4 97 0.2 WNW 9 11 5 6 1015.3 1015.3 2.6
25/10:30pm 7.4 5.0 7.2 99 0.1 WNW 9 9 5 5 1015.1 1015.1 2.6
25/10:00pm 7.5 5.1 7.1 97 0.2 SSW 9 11 5 6 1015.2 1015.2 2.6
25/09:30pm 8.0 5.7 7.6 97 0.2 NNW 9 13 5 7 1014.9 1014.9 2.6
25/09:00pm 8.2 5.9 7.6 96 0.3 NNW 9 11 5 6 1014.5 1014.5 2.6
25/08:30pm 8.7 6.1 7.9 95 0.4 NW 11 11 6 6 1014.6 1014.6 2.6
25/08:00pm 9.1 7.4 8.5 96 0.3 WNW 7 9 4 5 1014.5 1014.5 2.6
25/07:30pm 9.2 7.7 8.4 95 0.4 W 6 9 3 5 1014.2 1014.2 2.6
25/07:00pm 9.4 7.8 8.6 95 0.4 WNW 7 9 4 5 1013.7 1013.7 2.6
25/06:30pm 10.7 9.1 8.9 89 0.9 SSW 7 11 4 6 1013.4 1013.4 2.6
25/06:00pm 11.1 8.4 8.9 86 1.1 SW 13 20 7 11 1013.4 1013.4 1.8
25/05:30pm 12.1 10.3 9.5 84 1.3 WNW 9 11 5 6 1012.6 1012.6 0.8
25/05:00pm 12.1 10.5 10.2 88 1.0 SW 9 11 5 6 1012.4 1012.4 0.6
25/04:30pm 12.0 9.4 9.4 84 1.3 NNW 13 17 7 9 1011.8 1011.8 0.6
25/04:00pm 14.6 12.3 7.5 62 3.5 SW 9 11 5 6 1011.6 1011.5 0.2
25/03:30pm 15.7 12.4 4.6 47 5.2 SW 11 15 6 8 1011.0 1010.9 0.2

Other Formats:

Comma delimited format used in spreadsheet applications
http://www.bom.gov.au/fwo/IDN60801/IDN60801.94776.axf

JavaScript Object Notation format (JSON) in row-major order
http://www.bom.gov.au/fwo/IDN60801/IDN60801.94776.json